Logo AVAMET
Benvolgut visitant, si us plau, ingressa Recuperar contrasenya
AVAMET paisatges

les Useres

Dades diàries. Acumulats / Últims 30 dies disponibles

Data Temperatura (°C) Humitat rel. (%) Pressió rel. (hPa) Vent (km/h) Precipitació
Mínima Mitjana Màxima Amplitud
tèrmica
Mínima Mitjana Màxima Mínima Mitjana Màxima Predom. Mitjana Ràfega
màxima
Total
(mm)
Índex-n
Mínima Mitjana Màxima Mínima Mitjana Màxima n
0 a 1
P0 max
mm 5'
Dades mensuals acumulades fins l'últim dia disponible
12/2020 5,9 7,3 9,3 9,6 7,0 12,2 16,6 10,7 40 59 90 1.010 1.015 1.022   5,9 59,5 0,0
Dades anuals acumulades fins l'últim dia disponible
2020 1,8 13,4 24,3 17,4 6,2 22,1 35,0 33,2 18 66 96 989 1.016 1.033   6,2 104,6 1.062,6
Últims 30 dies disponibles
03-12-2020 5,9     6,5     7,0 1,1 52 54 57 1.014 1.014 1.015 N 3,9 16,1 0,0
02-12-2020 6,7     9,7     12,9 6,2 40 50 69 1.010 1.012 1.015 NNW 10,8 59,5 0,0
01-12-2020 9,3     12,5     16,6 7,3 48 73 90 1.013 1.018 1.022 SE 3,1 25,7 0,0
30-11-2020 9,2     12,4     17,0 7,8 67 79 89 1.019 1.021 1.022 S 1,4 17,7 0,0
29-11-2020 9,4     12,6     16,6 7,2 62 78 87 1.010 1.015 1.019 SE 3,9 22,5 1,8
28-11-2020 8,9     11,9     14,5 5,6 67 75 86 1.003 1.005 1.010 NNW 5,6 25,7 1,4
27-11-2020 8,8     12,8     14,9 6,1 79 88 93 1.005 1.008 1.013 NE 15,6 49,9 80,8
26-11-2020 9,8     12,3     13,8 4,0 80 84 90 1.013 1.014 1.016 NNW 4,0 17,7 31,4
25-11-2020 6,4     10,8     15,7 9,3 57 76 89 1.014 1.016 1.018 SE 2,1 19,3 0,0
24-11-2020 6,7     10,3     15,0 8,3 65 80 90 1.018 1.022 1.026 SE 2,4 24,1 0,2
23-11-2020 6,2     10,6     15,2 9,0 62 78 89 1.025 1.027 1.028 SE 4,0 27,4 0,0
22-11-2020 5,7     10,2     15,2 9,5 56 74 85 1.025 1.027 1.028 SE 3,7 22,5 0,0
21-11-2020 7,4     11,1     15,4 8,0 42 59 79 1.026 1.027 1.029 SE 3,2 25,7 0,0
20-11-2020 10,4     13,7     17,8 7,4 37 47 59 1.024 1.026 1.028 NNW 5,6 33,8 0,0
19-11-2020 10,9     16,2     22,3 11,4 50 73 91 1.027 1.028 1.029 SE 4,0 25,7 0,0
18-11-2020 11,4     14,3     18,6 7,2 70 85 92 1.025 1.026 1.027 SE 3,1 25,7 0,0
17-11-2020 11,3     14,9     19,3 8,0 59 82 90 1.023 1.025 1.026 SE 2,6 20,9 0,0
16-11-2020 13,6     17,5     22,1 8,5 59 70 89 1.016 1.020 1.024 SE 5,3 45,1 0,0
15-11-2020 12,4     17,4     21,7 9,3 55 71 93 1.016 1.018 1.019 SE 5,3 29,0 0,0
14-11-2020 11,2     13,7     16,3 5,1 77 88 92 1.019 1.019 1.021 SE 2,7 20,9 0,2
13-11-2020 9,9     13,4     17,9 8,0 66 80 92 1.019 1.020 1.021 SE 2,9 27,4 0,0
12-11-2020 10,5     13,7     18,9 8,4 56 76 92 1.020 1.021 1.023 SE 2,4 20,9 0,0
11-11-2020 10,0     13,7     18,0 8,0 62 78 87 1.021 1.024 1.026 SE 4,7 33,8 0,0
10-11-2020 12,7     15,4     19,9 7,2 52 69 88 1.022 1.024 1.026 SE 3,7 30,6 0,0
09-11-2020 10,3     14,6     19,3 9,0 57 73 87 1.019 1.020 1.022 SE 2,7 27,4 1,0
08-11-2020 10,5     14,4     18,1 7,6 59 73 88 1.020 1.021 1.023 SE 2,9 25,7 0,0
07-11-2020 11,4     14,8     16,8 5,4 69 87 95 1.013 1.018 1.022 SE 8,5 41,8 19,6
06-11-2020 14,3     15,6     16,6 2,3 88 93 95 1.018 1.021 1.023 NE 8,5 29,0 7,6
05-11-2020 10,6     12,6     14,5 3,9 81 89 95 1.021 1.023 1.025 NNW 10,8 43,5 48,2
04-11-2020 8,2     10,2     14,2 6,0 62 85 91 1.020 1.021 1.024 NNW 8,2 30,6 44,4
Últims 13 mesos disponibles
10/2020 8,4 12,8 18,3 17,0 17,4 22,1 28,8 20,4 43 58 83 994 1.015 1.024 SE 7,3 78,9 12,0
09/2020 12,6 17,1 19,9 21,4 21,4 26,5 30,6 18,0 41 60 79 1.009 1.015 1.022 SE 6,8 66,0 47,0
08/2020 14,9 20,8 23,7 25,1 23,1 30,2 34,0 19,1 47 63 75 1.003 1.012 1.018 SE 6,8 53,1 9,0
07/2020 17,7 20,2 24,3 24,8 25,9 29,9 35,0 17,3 38 64 80 1.010 1.014 1.019 SE 6,3 48,3 8,8
06/2020 12,9 16,8 20,1 21,0 19,7 25,7 29,8 16,9 43 65 83 1.002 1.013 1.019 SE 6,5 59,5 47,8
05/2020 11,3 15,2 18,8 19,6 16,1 24,4 30,2 18,9 48 63 82 1.003 1.015 1.026 SE 5,9 46,7 59,8
04/2020 6,3 10,4 15,3 13,7 12,4 18,2 25,7 19,4 47 75 88 1.003 1.014 1.025 SE 5,4 57,9 286,0
03/2020 3,8 8,8 14,5 12,2 8,6 16,1 24,8 21,0 45 67 92 1.002 1.015 1.026 NNW 8,2 104,6 203,4
02/2020 4,3 9,2 15,7 13,6 12,6 18,9 24,4 20,1 35 63 89 1.010 1.023 1.031 SE 5,0 62,8 0,8
01/2020 1,8 6,4 12,1 9,8 6,2 14,1 20,0 18,2 52 71 93 1.017 1.024 1.031 SE 5,5 74,0 151,4
12/2019 4,2 9,4 14,9 12,5 10,2 16,1 22,9 18,7 40 65 86 998 1.017 1.031 SE 7,1 96,6 96,2
11/2019 5,4 10,0 17,0 13,4 12,3 17,3 25,4 20,0 43 53 73 994 1.008 1.016 SE 9,5 78,9 3,2
10/2019 9,7 14,8 18,2 18,7 14,3 23,3 30,4 20,7 43 65 82 1.005 1.015 1.020 SE 6,0 56,3 24,8
Tots els anys disponibles
2019 1,8 13,0 25,9 17,0 9,1 21,7 38,4 36,6 22 59 88 990 1.015 1.032 SE 7,5 122,3 365,0
Temperatura (°C)
Humitat relativa (%)
Velocitat del vent i ràfega màxima (km/h)
Direcció del vent (°)
Pressió (hPa)
Precipitació (mm)
Nota sobre les dades: s'avisa a l'usuari de la provisionalitat i no oficialitat d'aquestes dades
Logo AVAMET blanc
Web allotjada a Sollutia
Llicència de Creative CommonsLa web d'AVAMET i els seus continguts estan subjectes a una llicència de
Reconeixement - No Comercial - Compartir igual
Avís legal - Política de privacitat - Política de cookies
NOVES ESTACIONS: València - l'Olivereta (Soci), Xixona - Carrasqueta/Bugaia (Soci), l'Alcúdia de Crespins/Canals - la Muntanyeta (Soci), Utiel - est (Soci), Xàbia - Cansalades (Soci), Alginet (Soci), Quatretondeta (Ajuntament Soci) Enguera - Benali (Soci/ADENE), la Vall d'Alba - sud (Ajuntament Soci), El Fondó dels Frares (Estació pròpia d'AVAMET nº34) - - -